Airport View

Enter AWOS ICAO identifier for current METAR.

ex. KFNL

KOJC 202353Z 17008KT 10SM OVC025 23/20 A2997 RMK AO2 SLP138 60000 T02330200 10278 20228 56010

21 Sep 2019 00:54

Phone: 913-780-6969

Other Area AWOS: KIXD - KMKC - KLXT - KLRY

TAF KMKC 202320Z 2100/2124 18012G20KT P6SM BKN040 BKN070 FM210100 17012G20KT P6SM BKN020 FM210600 17012G20KT P6SM VCSH OVC015 TEMPO 2109/2112 VRB15G25KT P6SM -TSRA OVC009CB FM211700 18014G24KT P6SM VCSH BKN020